F/V Santimax — FJWM — position and weather

sailwx.info

Track history (hours):
 
Tides and Currents Weather Stations Pressure Air Temp Water Temp Dewpoint Dewpoint Depression Visibility Wind Speed Wind Dir Waves Ship Positions

F/V Santimax

Last reported at 2017-Nov-24 04:45 UTC. Time now 2017-Nov-24 13:03 UTC.
Position N 47°32' W 003°25'.

Length 15 m.

Type: Fishing. MMSI: 228122900.

Date/timePositionNaut miles runAvg speedWind from/ knotsBaromVisibWave heightAir tempDewpointWater temp
2017-Nov-24 04:45N 47°32' W 003°25'2 8.0
2017-Nov-24 04:30N 47°34' W 003°24'4 8.0
2017-Nov-24 04:00N 47°38' W 003°23'4 8.2
2017-Nov-24 03:30N 47°42' W 003°22'2 3.8
2017-Nov-24 03:00N 47°44' W 003°22'0 0.0
2017-Nov-24 02:30N 47°44' W 003°22'0 0.0
2017-Nov-24 02:00N 47°44' W 003°22'0 0.0
2017-Nov-24 01:30N 47°44' W 003°22'0 0.0
2017-Nov-24 01:00N 47°44' W 003°22'0 0.0
2017-Nov-24 00:30N 47°44' W 003°22'0 0.0
2017-Nov-24 00:00N 47°44' W 003°22'0 0.0
2017-Nov-23 23:30N 47°44' W 003°22'0 0.0
2017-Nov-23 23:00N 47°44' W 003°22'0 0.0
2017-Nov-23 22:30N 47°44' W 003°22'0 0.0
2017-Nov-23 22:00N 47°44' W 003°22'0 0.0
2017-Nov-23 21:30N 47°44' W 003°22'0 0.0
2017-Nov-23 21:00N 47°44' W 003°22'0 0.0
2017-Nov-23 20:30N 47°44' W 003°22'0 0.0
2017-Nov-23 20:00N 47°44' W 003°22'0 0.0
2017-Nov-23 19:27N 47°44' W 003°22'0 0.0
2017-Nov-23 19:00N 47°44' W 003°22'0 0.0
2017-Nov-23 18:30N 47°44' W 003°22'0 0.0
2017-Nov-23 18:00N 47°44' W 003°22'0 0.0
2017-Nov-23 17:30N 47°44' W 003°22'0 0.0
2017-Nov-23 17:00N 47°44' W 003°22'0 0.0
2017-Nov-23 16:30N 47°44' W 003°22'0 0.0
2017-Nov-23 16:00N 47°44' W 003°22'0 0.0
2017-Nov-23 15:30N 47°44' W 003°22'0 0.0
2017-Nov-23 15:00N 47°44' W 003°22'0 0.0
2017-Nov-23 14:30N 47°44' W 003°22'0 0.0
2017-Nov-23 14:00N 47°44' W 003°22'0 0.0
2017-Nov-23 13:30N 47°44' W 003°22'0 0.0
2017-Nov-23 13:00N 47°44' W 003°22'0 0.0
2017-Nov-23 12:30N 47°44' W 003°22'0 0.0
2017-Nov-23 12:00N 47°44' W 003°22'0 0.0
2017-Nov-23 11:30N 47°44' W 003°22'0 0.0
2017-Nov-23 11:00N 47°44' W 003°22'0 0.0
2017-Nov-23 10:30N 47°44' W 003°22'0 0.0
2017-Nov-23 10:00N 47°44' W 003°22'0 0.0
2017-Nov-23 09:30N 47°44' W 003°22'0 0.0
2017-Nov-23 09:00N 47°44' W 003°22'0 0.0
2017-Nov-23 08:30N 47°44' W 003°22'0 0.0
2017-Nov-23 08:00N 47°44' W 003°22'0 0.0
2017-Nov-23 07:30N 47°44' W 003°22'0 0.0
2017-Nov-23 07:00N 47°44' W 003°22'0 0.0
2017-Nov-23 06:30N 47°44' W 003°22'0 0.0
2017-Nov-23 06:00N 47°44' W 003°22'0 0.0
2017-Nov-23 05:30N 47°44' W 003°22'0 0.0
2017-Nov-23 05:00N 47°44' W 003°22'0 0.0
2017-Nov-23 04:30N 47°44' W 003°22'0 0.0
2017-Nov-23 04:00N 47°44' W 003°22'0 0.0
2017-Nov-23 03:30N 47°44' W 003°22'0 0.0
2017-Nov-23 03:00N 47°44' W 003°22'0 0.0
2017-Nov-23 02:30N 47°44' W 003°22'0 0.0
2017-Nov-23 02:00N 47°44' W 003°22'0 0.0
2017-Nov-23 01:30N 47°44' W 003°22'0 0.0
2017-Nov-23 01:00N 47°44' W 003°22'0 0.0
2017-Nov-23 00:30N 47°44' W 003°22'0 0.0
2017-Nov-23 00:00N 47°44' W 003°22'0 0.0
2017-Nov-22 23:30N 47°44' W 003°22'0 0.0
2017-Nov-22 23:00N 47°44' W 003°22'0 0.0
2017-Nov-22 22:30N 47°44' W 003°22'0 0.0
2017-Nov-22 22:00N 47°44' W 003°22'0 0.0
2017-Nov-22 21:30N 47°44' W 003°22'0 0.0
2017-Nov-22 21:00N 47°44' W 003°22'0 0.0
2017-Nov-22 20:30N 47°44' W 003°22'0 0.0
2017-Nov-22 20:00N 47°44' W 003°22'0 0.0
2017-Nov-22 19:30N 47°44' W 003°22'  
2017-Nov-20 00:30N 47°31' W 003°30'2 3.9
2017-Nov-20 00:00N 47°30' W 003°30'2 4.0
2017-Nov-19 23:30N 47°28' W 003°29'2 4.0
2017-Nov-19 22:58N 47°26' W 003°28'2 3.8
2017-Nov-19 22:29N 47°24' W 003°28'4 0.3
2017-Nov-19 09:44N 47°25' W 003°33'1 3.6
2017-Nov-19 09:20N 47°26' W 003°35'15 3.6
2017-Nov-19 05:10N 47°40' W 003°27'1 9.0
2017-Nov-19 05:00N 47°41' W 003°25'4 7.0
2017-Nov-19 04:30N 47°44' W 003°22'0 0.0
2017-Nov-19 04:00N 47°44' W 003°22'0 0.0
2017-Nov-19 03:30N 47°44' W 003°22'0 0.0
2017-Nov-19 03:00N 47°44' W 003°22'0 0.0
2017-Nov-19 02:30N 47°44' W 003°22'0 0.0
2017-Nov-19 02:00N 47°44' W 003°22'0 0.0
2017-Nov-19 01:30N 47°44' W 003°22'0 0.0
2017-Nov-19 01:00N 47°44' W 003°22'0 0.0
2017-Nov-19 00:30N 47°44' W 003°22'0 0.0
2017-Nov-19 00:00N 47°44' W 003°22'0 0.0
2017-Nov-18 23:30N 47°44' W 003°22'0 0.0
2017-Nov-18 23:00N 47°44' W 003°22'0 0.0
2017-Nov-18 22:30N 47°44' W 003°22'0 0.0
2017-Nov-18 22:00N 47°44' W 003°22'0 0.0
2017-Nov-18 21:30N 47°44' W 003°22'0 0.0
2017-Nov-18 21:00N 47°44' W 003°22'0 0.0
2017-Nov-18 20:30N 47°44' W 003°22'0 0.0
2017-Nov-18 20:00N 47°44' W 003°22'0 0.0
2017-Nov-18 19:30N 47°44' W 003°22'0 0.0
2017-Nov-18 19:00N 47°44' W 003°22'0 0.0
2017-Nov-18 18:30N 47°44' W 003°22'0 0.0
2017-Nov-18 18:00N 47°44' W 003°22'0 0.0
2017-Nov-18 17:30N 47°44' W 003°22'0 0.0
2017-Nov-18 17:00N 47°44' W 003°22'0 0.0
2017-Nov-18 16:30N 47°44' W 003°22'0 0.0
2017-Nov-18 16:00N 47°44' W 003°22'0 0.0
2017-Nov-18 15:30N 47°44' W 003°22'0 0.0
2017-Nov-18 15:00N 47°44' W 003°22'0 0.0
2017-Nov-18 14:30N 47°44' W 003°22'0 0.0
2017-Nov-18 14:00N 47°44' W 003°22'0 0.0
2017-Nov-18 13:30N 47°44' W 003°22'0 0.0
2017-Nov-18 13:00N 47°44' W 003°22'0 0.0
2017-Nov-18 12:30N 47°44' W 003°22'0 0.0
2017-Nov-18 12:00N 47°44' W 003°22'0 0.0
2017-Nov-18 11:30N 47°44' W 003°22'0 0.0
2017-Nov-18 11:00N 47°44' W 003°22'0 0.0
2017-Nov-18 10:30N 47°44' W 003°22'0 0.0
2017-Nov-18 10:00N 47°44' W 003°22'0 0.0
2017-Nov-18 09:24N 47°44' W 003°22'0 0.0
2017-Nov-18 09:00N 47°44' W 003°22'0 0.0
2017-Nov-18 08:30N 47°44' W 003°22'0 0.0
2017-Nov-18 08:00N 47°44' W 003°22'0 0.0
2017-Nov-18 07:30N 47°44' W 003°22'0 0.0
2017-Nov-18 07:00N 47°44' W 003°22'0 0.0
2017-Nov-18 06:30N 47°44' W 003°22'0 0.0
2017-Nov-18 06:00N 47°44' W 003°22'0 0.0
2017-Nov-18 05:30N 47°44' W 003°22'0 0.0
2017-Nov-18 05:00N 47°44' W 003°22'0 0.0
2017-Nov-18 04:30N 47°44' W 003°22'0 0.0
2017-Nov-18 04:00N 47°44' W 003°22'0 0.0
2017-Nov-18 03:30N 47°44' W 003°22'0 0.0
2017-Nov-18 03:00N 47°44' W 003°22'0 0.0
2017-Nov-18 02:30N 47°44' W 003°22'0 0.0
2017-Nov-18 02:00N 47°44' W 003°22'1 1.6
2017-Nov-18 01:30N 47°43' W 003°22'5 9.5
2017-Nov-18 01:00N 47°38' W 003°23'4 9.0
2017-Nov-18 00:30N 47°35' W 003°27'2 4.9
2017-Nov-18 00:00N 47°33' W 003°30'2 3.6
2017-Nov-17 23:31N 47°31' W 003°30'2 3.7
2017-Nov-17 23:00N 47°30' W 003°30'2 3.8
2017-Nov-17 22:30N 47°28' W 003°29'2 3.9
2017-Nov-17 22:00N 47°26' W 003°28'2 3.5
2017-Nov-17 21:28N 47°24' W 003°29'2 3.7
2017-Nov-17 20:55N 47°25' W 003°32'2 3.2
2017-Nov-17 20:21N 47°26' W 003°34'5 0.9
2017-Nov-17 14:42N 47°31' W 003°35'2 3.7
2017-Nov-17 14:17N 47°30' W 003°33'1 0.3
2017-Nov-17 12:08N 47°29' W 003°33'0 3.9
2017-Nov-17 12:00N 47°29' W 003°34'2 1.3
2017-Nov-17 10:35N 47°31' W 003°34'0 4.0
2017-Nov-17 10:29N 47°30' W 003°34'2 3.0
2017-Nov-17 09:57N 47°29' W 003°34'2 4.0
2017-Nov-17 09:30N 47°29' W 003°36'3 2.1
2017-Nov-17 08:15N 47°31' W 003°35'1 3.9
2017-Nov-17 07:57N 47°30' W 003°34'1 3.1
2017-Nov-17 07:30N 47°29' W 003°34'3 3.3
2017-Nov-17 06:29N 47°32' W 003°36'10 3.5
2017-Nov-17 03:32N 47°40' W 003°27'0 6.8
2017-Nov-17 03:30N 47°40' W 003°26'4 7.7
2017-Nov-17 03:00N 47°43' W 003°22'1 1.7
2017-Nov-17 02:30N 47°44' W 003°22'0 0.4
2017-Nov-17 01:59N 47°44' W 003°22'2 4.0
2017-Nov-17 01:30N 47°42' W 003°22'5 9.2
2017-Nov-17 01:00N 47°37' W 003°23'5 9.1
2017-Nov-17 00:30N 47°34' W 003°27'2 4.7
2017-Nov-17 00:00N 47°32' W 003°30'2 3.8
2017-Nov-16 23:30N 47°30' W 003°30'2 4.0
2017-Nov-16 22:58N 47°28' W 003°29'2 3.8
2017-Nov-16 22:29N 47°27' W 003°31'2 3.8
2017-Nov-16 22:00N 47°26' W 003°34'2 3.7
2017-Nov-16 21:30N 47°26' W 003°36'5 1.1
2017-Nov-16 16:37N 47°31' W 003°34'1 3.8
2017-Nov-16 16:20N 47°30' W 003°33'1 3.2
2017-Nov-16 16:00N 47°29' W 003°33'1 0.3
2017-Nov-16 13:51N 47°30' W 003°33'1 3.3
2017-Nov-16 13:30N 47°29' W 003°34'3 2.4
2017-Nov-16 12:12N 47°32' W 003°34'3 3.3
2017-Nov-16 11:14N 47°30' W 003°31'2 1.8
2017-Nov-16 10:10N 47°32' W 003°31'1 3.9
2017-Nov-16 09:52N 47°31' W 003°31'1 0.9
2017-Nov-16 08:31N 47°32' W 003°31'0 3.9
2017-Nov-16 08:26N 47°32' W 003°31'2 3.8
2017-Nov-16 07:59N 47°30' W 003°31'4 2.4
2017-Nov-16 06:24N 47°34' W 003°31'0 0.2
2017-Nov-16 06:00N 47°34' W 003°31'1 2.7
2017-Nov-16 05:27N 47°33' W 003°31'3 6.5
2017-Nov-16 04:57N 47°36' W 003°31'6 5.3
2017-Nov-16 03:55N 47°40' W 003°27'3 7.5
2017-Nov-16 03:30N 47°42' W 003°23'2 4.5
2017-Nov-16 03:00N 47°44' W 003°22'0 0.0
2017-Nov-16 02:30N 47°44' W 003°22'4 7.7
2017-Nov-16 02:00N 47°40' W 003°22'4 8.7
2017-Nov-16 01:30N 47°36' W 003°24'4 8.5
2017-Nov-16 01:00N 47°34' W 003°30'1 3.0
2017-Nov-16 00:30N 47°32' W 003°30'2 3.8
2017-Nov-16 00:00N 47°30' W 003°30'2 3.7
2017-Nov-15 23:30N 47°28' W 003°29'2 3.8
2017-Nov-15 23:00N 47°27' W 003°31'2 3.6
2017-Nov-15 22:30N 47°26' W 003°34'7 1.6
2017-Nov-15 17:56N 47°33' W 003°31'1 3.0
2017-Nov-15 17:30N 47°35' W 003°32'2 3.7
2017-Nov-15 17:00N 47°36' W 003°34'2 1.9
2017-Nov-15 16:06N 47°34' W 003°33'1 4.1
2017-Nov-15 15:57N 47°34' W 003°32'2 3.8
2017-Nov-15 15:30N 47°32' W 003°31'2 3.3
2017-Nov-15 14:59N 47°31' W 003°31'3 2.0
2017-Nov-15 13:39N 47°33' W 003°31'1 3.9
2017-Nov-15 13:30N 47°34' W 003°32'2 3.9
2017-Nov-15 13:00N 47°35' W 003°34'1 1.7
2017-Nov-15 12:27N 47°36' W 003°35'0 0.2
2017-Nov-15 12:00N 47°36' W 003°35'1 2.2
2017-Nov-15 11:20N 47°35' W 003°34'1 3.8
2017-Nov-15 10:59N 47°34' W 003°32'2 3.5
2017-Nov-15 10:30N 47°32' W 003°31'2 3.7
2017-Nov-15 10:00N 47°30' W 003°31'1 1.9
2017-Nov-15 09:20N 47°31' W 003°32'2 3.0
2017-Nov-15 08:40N 47°33' W 003°31'1 3.8
2017-Nov-15 08:30N 47°33' W 003°32'2 3.7
2017-Nov-15 08:00N 47°35' W 003°34'1 2.1
2017-Nov-15 07:20N 47°35' W 003°35'4 3.7
2017-Nov-15 06:19N 47°34' W 003°30'2 6.3
2017-Nov-15 06:00N 47°36' W 003°32'6 4.8
2017-Nov-15 04:47N 47°35' W 003°23'2 6.8
2017-Nov-15 04:31N 47°37' W 003°23'3 6.7
2017-Nov-15 04:01N 47°41' W 003°22'3 6.2
2017-Nov-15 03:30N 47°44' W 003°22'0 0.3
2017-Nov-15 02:59N 47°44' W 003°22'1 1.9
2017-Nov-15 02:30N 47°43' W 003°22'5 9.0
2017-Nov-15 02:00N 47°38' W 003°23'4 8.5
2017-Nov-15 01:30N 47°35' W 003°27'2 5.0
2017-Nov-15 01:00N 47°34' W 003°30'2 3.5
2017-Nov-15 00:30N 47°32' W 003°30'2 3.6
2017-Nov-14 23:59N 47°30' W 003°30'2 3.6
2017-Nov-14 23:30N 47°28' W 003°29'2 3.6
2017-Nov-14 23:00N 47°27' W 003°28'2 3.7
2017-Nov-14 22:30N 47°25' W 003°28'8 1.9
2017-Nov-14 18:08N 47°33' W 003°31'0 3.8
2017-Nov-14 18:00N 47°33' W 003°31'1 3.0
2017-Nov-14 17:30N 47°35' W 003°33'2 3.4
2017-Nov-14 16:56N 47°35' W 003°35'2 0.2
2017-Nov-14 08:12N 47°35' W 003°38'1 3.4
2017-Nov-14 08:00N 47°34' W 003°38'2 2.4
2017-Nov-14 07:05N 47°36' W 003°38'2 3.8
2017-Nov-14 06:41N 47°35' W 003°37'1 4.5
2017-Nov-14 06:30N 47°35' W 003°36'3 5.3
2017-Nov-14 06:00N 47°37' W 003°35'  
Track history (hours):
 
Tides and Currents Weather Stations Pressure Air Temp Water Temp Dewpoint Dewpoint Depression Visibility Wind Speed Wind Dir Waves Ship Positions

F/V Santimax

Last reported at 2017-Nov-24 04:45 UTC. Time now 2017-Nov-24 13:03 UTC.
Position N 47°32' W 003°25'.

Length 15 m.

Type: Fishing. MMSI: 228122900.

Date/timePositionNaut miles runAvg speedWind from/ knotsBaromVisibWave heightAir tempDewpointWater temp
2017-Nov-24 04:45N 47°32' W 003°25'2 8.0
2017-Nov-24 04:30N 47°34' W 003°24'4 8.0
2017-Nov-24 04:00N 47°38' W 003°23'4 8.2
2017-Nov-24 03:30N 47°42' W 003°22'2 3.8
2017-Nov-24 03:00N 47°44' W 003°22'0 0.0
2017-Nov-24 02:30N 47°44' W 003°22'0 0.0
2017-Nov-24 02:00N 47°44' W 003°22'0 0.0
2017-Nov-24 01:30N 47°44' W 003°22'0 0.0
2017-Nov-24 01:00N 47°44' W 003°22'0 0.0
2017-Nov-24 00:30N 47°44' W 003°22'0 0.0
2017-Nov-24 00:00N 47°44' W 003°22'0 0.0
2017-Nov-23 23:30N 47°44' W 003°22'0 0.0
2017-Nov-23 23:00N 47°44' W 003°22'0 0.0
2017-Nov-23 22:30N 47°44' W 003°22'0 0.0
2017-Nov-23 22:00N 47°44' W 003°22'0 0.0
2017-Nov-23 21:30N 47°44' W 003°22'0 0.0
2017-Nov-23 21:00N 47°44' W 003°22'0 0.0
2017-Nov-23 20:30N 47°44' W 003°22'0 0.0
2017-Nov-23 20:00N 47°44' W 003°22'0 0.0
2017-Nov-23 19:27N 47°44' W 003°22'0 0.0
2017-Nov-23 19:00N 47°44' W 003°22'0 0.0
2017-Nov-23 18:30N 47°44' W 003°22'0 0.0
2017-Nov-23 18:00N 47°44' W 003°22'0 0.0
2017-Nov-23 17:30N 47°44' W 003°22'0 0.0
2017-Nov-23 17:00N 47°44' W 003°22'0 0.0
2017-Nov-23 16:30N 47°44' W 003°22'0 0.0
2017-Nov-23 16:00N 47°44' W 003°22'0 0.0
2017-Nov-23 15:30N 47°44' W 003°22'0 0.0
2017-Nov-23 15:00N 47°44' W 003°22'0 0.0
2017-Nov-23 14:30N 47°44' W 003°22'0 0.0
2017-Nov-23 14:00N 47°44' W 003°22'0 0.0
2017-Nov-23 13:30N 47°44' W 003°22'0 0.0
2017-Nov-23 13:00N 47°44' W 003°22'0 0.0
2017-Nov-23 12:30N 47°44' W 003°22'0 0.0
2017-Nov-23 12:00N 47°44' W 003°22'0 0.0
2017-Nov-23 11:30N 47°44' W 003°22'0 0.0
2017-Nov-23 11:00N 47°44' W 003°22'0 0.0
2017-Nov-23 10:30N 47°44' W 003°22'0 0.0
2017-Nov-23 10:00N 47°44' W 003°22'0 0.0
2017-Nov-23 09:30N 47°44' W 003°22'0 0.0
2017-Nov-23 09:00N 47°44' W 003°22'0 0.0
2017-Nov-23 08:30N 47°44' W 003°22'0 0.0
2017-Nov-23 08:00N 47°44' W 003°22'0 0.0
2017-Nov-23 07:30N 47°44' W 003°22'0 0.0
2017-Nov-23 07:00N 47°44' W 003°22'0 0.0
2017-Nov-23 06:30N 47°44' W 003°22'0 0.0
2017-Nov-23 06:00N 47°44' W 003°22'0 0.0
2017-Nov-23 05:30N 47°44' W 003°22'0 0.0
2017-Nov-23 05:00N 47°44' W 003°22'0 0.0
2017-Nov-23 04:30N 47°44' W 003°22'0 0.0
2017-Nov-23 04:00N 47°44' W 003°22'0 0.0
2017-Nov-23 03:30N 47°44' W 003°22'0 0.0
2017-Nov-23 03:00N 47°44' W 003°22'0 0.0
2017-Nov-23 02:30N 47°44' W 003°22'0 0.0
2017-Nov-23 02:00N 47°44' W 003°22'0 0.0
2017-Nov-23 01:30N 47°44' W 003°22'0 0.0
2017-Nov-23 01:00N 47°44' W 003°22'0 0.0
2017-Nov-23 00:30N 47°44' W 003°22'0 0.0
2017-Nov-23 00:00N 47°44' W 003°22'0 0.0
2017-Nov-22 23:30N 47°44' W 003°22'0 0.0
2017-Nov-22 23:00N 47°44' W 003°22'0 0.0
2017-Nov-22 22:30N 47°44' W 003°22'0 0.0
2017-Nov-22 22:00N 47°44' W 003°22'0 0.0
2017-Nov-22 21:30N 47°44' W 003°22'0 0.0
2017-Nov-22 21:00N 47°44' W 003°22'0 0.0
2017-Nov-22 20:30N 47°44' W 003°22'0 0.0
2017-Nov-22 20:00N 47°44' W 003°22'0 0.0
2017-Nov-22 19:30N 47°44' W 003°22'  
2017-Nov-20 00:30N 47°31' W 003°30'2 3.9
2017-Nov-20 00:00N 47°30' W 003°30'2 4.0
2017-Nov-19 23:30N 47°28' W 003°29'2 4.0
2017-Nov-19 22:58N 47°26' W 003°28'2 3.8
2017-Nov-19 22:29N 47°24' W 003°28'4 0.3
2017-Nov-19 09:44N 47°25' W 003°33'1 3.6
2017-Nov-19 09:20N 47°26' W 003°35'15 3.6
2017-Nov-19 05:10N 47°40' W 003°27'1 9.0
2017-Nov-19 05:00N 47°41' W 003°25'4 7.0
2017-Nov-19 04:30N 47°44' W 003°22'0 0.0
2017-Nov-19 04:00N 47°44' W 003°22'0 0.0
2017-Nov-19 03:30N 47°44' W 003°22'0 0.0
2017-Nov-19 03:00N 47°44' W 003°22'0 0.0
2017-Nov-19 02:30N 47°44' W 003°22'0 0.0
2017-Nov-19 02:00N 47°44' W 003°22'0 0.0
2017-Nov-19 01:30N 47°44' W 003°22'0 0.0
2017-Nov-19 01:00N 47°44' W 003°22'0 0.0
2017-Nov-19 00:30N 47°44' W 003°22'0 0.0
2017-Nov-19 00:00N 47°44' W 003°22'0 0.0
2017-Nov-18 23:30N 47°44' W 003°22'0 0.0
2017-Nov-18 23:00N 47°44' W 003°22'0 0.0
2017-Nov-18 22:30N 47°44' W 003°22'0 0.0
2017-Nov-18 22:00N 47°44' W 003°22'0 0.0
2017-Nov-18 21:30N 47°44' W 003°22'0 0.0
2017-Nov-18 21:00N 47°44' W 003°22'0 0.0
2017-Nov-18 20:30N 47°44' W 003°22'0 0.0
2017-Nov-18 20:00N 47°44' W 003°22'0 0.0
2017-Nov-18 19:30N 47°44' W 003°22'0 0.0
2017-Nov-18 19:00N 47°44' W 003°22'0 0.0
2017-Nov-18 18:30N 47°44' W 003°22'0 0.0
2017-Nov-18 18:00N 47°44' W 003°22'0 0.0
2017-Nov-18 17:30N 47°44' W 003°22'0 0.0
2017-Nov-18 17:00N 47°44' W 003°22'0 0.0
2017-Nov-18 16:30N 47°44' W 003°22'0 0.0
2017-Nov-18 16:00N 47°44' W 003°22'0 0.0
2017-Nov-18 15:30N 47°44' W 003°22'0 0.0
2017-Nov-18 15:00N 47°44' W 003°22'0 0.0
2017-Nov-18 14:30N 47°44' W 003°22'0 0.0
2017-Nov-18 14:00N 47°44' W 003°22'0 0.0
2017-Nov-18 13:30N 47°44' W 003°22'0 0.0
2017-Nov-18 13:00N 47°44' W 003°22'0 0.0
2017-Nov-18 12:30N 47°44' W 003°22'0 0.0
2017-Nov-18 12:00N 47°44' W 003°22'0 0.0
2017-Nov-18 11:30N 47°44' W 003°22'0 0.0
2017-Nov-18 11:00N 47°44' W 003°22'0 0.0
2017-Nov-18 10:30N 47°44' W 003°22'0 0.0
2017-Nov-18 10:00N 47°44' W 003°22'0 0.0
2017-Nov-18 09:24N 47°44' W 003°22'0 0.0
2017-Nov-18 09:00N 47°44' W 003°22'0 0.0
2017-Nov-18 08:30N 47°44' W 003°22'0 0.0
2017-Nov-18 08:00N 47°44' W 003°22'0 0.0
2017-Nov-18 07:30N 47°44' W 003°22'0 0.0
2017-Nov-18 07:00N 47°44' W 003°22'0 0.0
2017-Nov-18 06:30N 47°44' W 003°22'0 0.0
2017-Nov-18 06:00N 47°44' W 003°22'0 0.0
2017-Nov-18 05:30N 47°44' W 003°22'0 0.0
2017-Nov-18 05:00N 47°44' W 003°22'0 0.0
2017-Nov-18 04:30N 47°44' W 003°22'0 0.0
2017-Nov-18 04:00N 47°44' W 003°22'0 0.0
2017-Nov-18 03:30N 47°44' W 003°22'0 0.0
2017-Nov-18 03:00N 47°44' W 003°22'0 0.0
2017-Nov-18 02:30N 47°44' W 003°22'0 0.0
2017-Nov-18 02:00N 47°44' W 003°22'1 1.6
2017-Nov-18 01:30N 47°43' W 003°22'5 9.5
2017-Nov-18 01:00N 47°38' W 003°23'4 9.0
2017-Nov-18 00:30N 47°35' W 003°27'2 4.9
2017-Nov-18 00:00N 47°33' W 003°30'2 3.6
2017-Nov-17 23:31N 47°31' W 003°30'2 3.7
2017-Nov-17 23:00N 47°30' W 003°30'2 3.8
2017-Nov-17 22:30N 47°28' W 003°29'2 3.9
2017-Nov-17 22:00N 47°26' W 003°28'2 3.5
2017-Nov-17 21:28N 47°24' W 003°29'2 3.7
2017-Nov-17 20:55N 47°25' W 003°32'2 3.2
2017-Nov-17 20:21N 47°26' W 003°34'5 0.9
2017-Nov-17 14:42N 47°31' W 003°35'2 3.7
2017-Nov-17 14:17N 47°30' W 003°33'1 0.3
2017-Nov-17 12:08N 47°29' W 003°33'0 3.9
2017-Nov-17 12:00N 47°29' W 003°34'2 1.3
2017-Nov-17 10:35N 47°31' W 003°34'0 4.0
2017-Nov-17 10:29N 47°30' W 003°34'2 3.0
2017-Nov-17 09:57N 47°29' W 003°34'2 4.0
2017-Nov-17 09:30N 47°29' W 003°36'3 2.1
2017-Nov-17 08:15N 47°31' W 003°35'1 3.9
2017-Nov-17 07:57N 47°30' W 003°34'1 3.1
2017-Nov-17 07:30N 47°29' W 003°34'3 3.3
2017-Nov-17 06:29N 47°32' W 003°36'10 3.5
2017-Nov-17 03:32N 47°40' W 003°27'0 6.8
2017-Nov-17 03:30N 47°40' W 003°26'4 7.7
2017-Nov-17 03:00N 47°43' W 003°22'1 1.7
2017-Nov-17 02:30N 47°44' W 003°22'0 0.4
2017-Nov-17 01:59N 47°44' W 003°22'2 4.0
2017-Nov-17 01:30N 47°42' W 003°22'5 9.2
2017-Nov-17 01:00N 47°37' W 003°23'5 9.1
2017-Nov-17 00:30N 47°34' W 003°27'2 4.7
2017-Nov-17 00:00N 47°32' W 003°30'2 3.8
2017-Nov-16 23:30N 47°30' W 003°30'2 4.0
2017-Nov-16 22:58N 47°28' W 003°29'2 3.8
2017-Nov-16 22:29N 47°27' W 003°31'2 3.8
2017-Nov-16 22:00N 47°26' W 003°34'2 3.7
2017-Nov-16 21:30N 47°26' W 003°36'5 1.1
2017-Nov-16 16:37N 47°31' W 003°34'1 3.8
2017-Nov-16 16:20N 47°30' W 003°33'1 3.2
2017-Nov-16 16:00N 47°29' W 003°33'1 0.3
2017-Nov-16 13:51N 47°30' W 003°33'1 3.3
2017-Nov-16 13:30N 47°29' W 003°34'3 2.4
2017-Nov-16 12:12N 47°32' W 003°34'3 3.3
2017-Nov-16 11:14N 47°30' W 003°31'2 1.8
2017-Nov-16 10:10N 47°32' W 003°31'1 3.9
2017-Nov-16 09:52N 47°31' W 003°31'1 0.9
2017-Nov-16 08:31N 47°32' W 003°31'0 3.9
2017-Nov-16 08:26N 47°32' W 003°31'2 3.8
2017-Nov-16 07:59N 47°30' W 003°31'4 2.4
2017-Nov-16 06:24N 47°34' W 003°31'0 0.2
2017-Nov-16 06:00N 47°34' W 003°31'1 2.7
2017-Nov-16 05:27N 47°33' W 003°31'3 6.5
2017-Nov-16 04:57N 47°36' W 003°31'6 5.3
2017-Nov-16 03:55N 47°40' W 003°27'3 7.5
2017-Nov-16 03:30N 47°42' W 003°23'2 4.5
2017-Nov-16 03:00N 47°44' W 003°22'0 0.0
2017-Nov-16 02:30N 47°44' W 003°22'4 7.7
2017-Nov-16 02:00N 47°40' W 003°22'4 8.7
2017-Nov-16 01:30N 47°36' W 003°24'4 8.5
2017-Nov-16 01:00N 47°34' W 003°30'1 3.0
2017-Nov-16 00:30N 47°32' W 003°30'2 3.8
2017-Nov-16 00:00N 47°30' W 003°30'2 3.7
2017-Nov-15 23:30N 47°28' W 003°29'2 3.8
2017-Nov-15 23:00N 47°27' W 003°31'2 3.6
2017-Nov-15 22:30N 47°26' W 003°34'7 1.6
2017-Nov-15 17:56N 47°33' W 003°31'1 3.0
2017-Nov-15 17:30N 47°35' W 003°32'2 3.7
2017-Nov-15 17:00N 47°36' W 003°34'2 1.9
2017-Nov-15 16:06N 47°34' W 003°33'1 4.1
2017-Nov-15 15:57N 47°34' W 003°32'2 3.8
2017-Nov-15 15:30N 47°32' W 003°31'2 3.3
2017-Nov-15 14:59N 47°31' W 003°31'3 2.0
2017-Nov-15 13:39N 47°33' W 003°31'1 3.9
2017-Nov-15 13:30N 47°34' W 003°32'2 3.9
2017-Nov-15 13:00N 47°35' W 003°34'1 1.7
2017-Nov-15 12:27N 47°36' W 003°35'0 0.2
2017-Nov-15 12:00N 47°36' W 003°35'1 2.2
2017-Nov-15 11:20N 47°35' W 003°34'1 3.8
2017-Nov-15 10:59N 47°34' W 003°32'2 3.5
2017-Nov-15 10:30N 47°32' W 003°31'2 3.7
2017-Nov-15 10:00N 47°30' W 003°31'1 1.9
2017-Nov-15 09:20N 47°31' W 003°32'2 3.0
2017-Nov-15 08:40N 47°33' W 003°31'1 3.8
2017-Nov-15 08:30N 47°33' W 003°32'2 3.7
2017-Nov-15 08:00N 47°35' W 003°34'1 2.1
2017-Nov-15 07:20N 47°35' W 003°35'4 3.7
2017-Nov-15 06:19N 47°34' W 003°30'2 6.3
2017-Nov-15 06:00N 47°36' W 003°32'6 4.8
2017-Nov-15 04:47N 47°35' W 003°23'2 6.8
2017-Nov-15 04:31N 47°37' W 003°23'3 6.7
2017-Nov-15 04:01N 47°41' W 003°22'3 6.2
2017-Nov-15 03:30N 47°44' W 003°22'0 0.3
2017-Nov-15 02:59N 47°44' W 003°22'1 1.9
2017-Nov-15 02:30N 47°43' W 003°22'5 9.0
2017-Nov-15 02:00N 47°38' W 003°23'4 8.5
2017-Nov-15 01:30N 47°35' W 003°27'2 5.0
2017-Nov-15 01:00N 47°34' W 003°30'2 3.5
2017-Nov-15 00:30N 47°32' W 003°30'2 3.6
2017-Nov-14 23:59N 47°30' W 003°30'2 3.6
2017-Nov-14 23:30N 47°28' W 003°29'2 3.6
2017-Nov-14 23:00N 47°27' W 003°28'2 3.7
2017-Nov-14 22:30N 47°25' W 003°28'8 1.9
2017-Nov-14 18:08N 47°33' W 003°31'0 3.8
2017-Nov-14 18:00N 47°33' W 003°31'1 3.0
2017-Nov-14 17:30N 47°35' W 003°33'2 3.4
2017-Nov-14 16:56N 47°35' W 003°35'2 0.2
2017-Nov-14 08:12N 47°35' W 003°38'1 3.4
2017-Nov-14 08:00N 47°34' W 003°38'2 2.4
2017-Nov-14 07:05N 47°36' W 003°38'2 3.8
2017-Nov-14 06:41N 47°35' W 003°37'1 4.5
2017-Nov-14 06:30N 47°35' W 003°36'3 5.3
2017-Nov-14 06:00N 47°37' W 003°35'  

Dump ship's entire track history